Time;durP1;ratioP1;P1;durP2;ratioP2;P2;SDS_P1;SDS_P2;PMS_P1;PMS_P2;Temp;Humidity;BMP_temperature;BMP_pressure;BME280_temperature;BME280_humidity;BME280_pressure;Samples;Min_cycle;Max_cycle;Signal;HPM_P1;HPM_P2
2023/10/10 00:01:44;;;;;;;16.73;8.95;;;;;;;20.20;73.51;102173.22;4988357;28;20041;-44
2023/10/10 00:04:12;;;;;;;17.63;9.35;;;;;;;20.13;73.69;102177.66;4990109;28;20034;-45
2023/10/10 00:06:39;;;;;;;18.73;9.25;;;;;;;20.15;73.39;102181.19;4988184;28;20037;-45
2023/10/10 00:09:12;;;;;;;20.05;9.35;;;;;;;20.09;73.97;102173.28;4989902;28;20521;-45
2023/10/10 00:11:41;;;;;;;22.10;11.07;;;;;;;20.10;74.83;102175.03;4989287;28;20035;-44
2023/10/10 00:14:18;;;;;;;18.88;10.10;;;;;;;20.13;74.24;102172.38;4993053;28;20030;-45
2023/10/10 00:16:47;;;;;;;17.45;9.35;;;;;;;20.15;74.21;102167.94;4994401;28;20057;-46
2023/10/10 00:19:28;;;;;;;18.27;9.55;;;;;;;20.15;74.00;102172.38;4994944;28;20026;-42
2023/10/10 00:21:54;;;;;;;22.17;10.02;;;;;;;20.13;74.01;102167.06;4993739;28;20034;-46
2023/10/10 00:24:21;;;;;;;20.63;10.65;;;;;;;20.09;74.43;102164.44;4993541;28;20117;-46
2023/10/10 00:26:49;;;;;;;24.10;11.65;;;;;;;20.09;74.60;102173.28;4991995;28;20076;-45
2023/10/10 00:29:19;;;;;;;19.55;10.20;;;;;;;20.11;74.62;102160.03;4994166;28;20117;-43
2023/10/10 00:31:55;;;;;;;20.30;9.93;;;;;;;20.11;74.25;102162.69;4994014;28;20057;-44
2023/10/10 00:34:21;;;;;;;21.92;9.98;;;;;;;20.13;74.53;102158.25;4978045;28;20027;-44
2023/10/10 00:36:51;;;;;;;20.42;10.48;;;;;;;20.11;74.36;102152.97;4994225;28;20567;-44
2023/10/10 00:41:51;;;;;;;23.40;11.30;;;;;;;20.10;74.37;102145.91;4993351;28;20042;-48
2023/10/10 00:44:18;;;;;;;25.90;12.85;;;;;;;20.12;74.62;102145.91;4993678;28;20509;-45
2023/10/10 00:46:49;;;;;;;24.27;11.93;;;;;;;20.15;74.62;102144.13;4993491;28;20045;-44
2023/10/10 00:49:17;;;;;;;27.83;14.02;;;;;;;20.13;74.97;102147.66;4993799;28;20453;-45
2023/10/10 00:51:47;;;;;;;25.33;13.52;;;;;;;20.15;75.19;102137.94;4993084;28;20405;-44
2023/10/10 00:54:43;;;;;;;25.48;12.40;;;;;;;20.17;75.13;102139.69;4993710;28;20038;-45
2023/10/10 00:57:07;;;;;;;26.23;12.52;;;;;;;20.14;74.95;102137.06;4992678;28;20038;-45
2023/10/10 00:59:35;;;;;;;23.90;12.95;;;;;;;20.13;75.37;102135.28;4993268;28;20035;-44
2023/10/10 01:02:06;;;;;;;26.42;12.27;;;;;;;20.16;74.96;102134.41;4993457;28;20068;-44
2023/10/10 01:04:35;;;;;;;24.92;11.90;;;;;;;20.18;75.31;102135.28;4993376;28;20045;-47
2023/10/10 01:07:07;;;;;;;25.80;12.13;;;;;;;20.17;75.49;102136.19;4992307;28;20445;-45
2023/10/10 01:09:34;;;;;;;25.67;12.75;;;;;;;20.14;75.56;102125.59;4993128;28;20030;-46
2023/10/10 01:12:04;;;;;;;26.10;12.48;;;;;;;20.12;75.74;102120.31;4993329;28;20038;-47
2023/10/10 01:14:31;;;;;;;27.17;12.90;;;;;;;20.13;76.02;102124.69;4993315;28;20038;-45
2023/10/10 01:17:00;;;;;;;28.95;12.73;;;;;;;20.13;75.90;102116.75;4992993;28;20508;-47
2023/10/10 01:19:28;;;;;;;23.35;11.27;;;;;;;20.17;75.83;102129.13;4992871;28;20042;-43
2023/10/10 01:21:57;;;;;;;23.63;12.00;;;;;;;20.18;75.62;102122.94;4993124;28;20038;-43
2023/10/10 01:24:24;;;;;;;22.60;10.85;;;;;;;20.19;75.40;102131.72;4992627;28;20053;-45
2023/10/10 01:26:51;;;;;;;25.52;12.48;;;;;;;20.16;75.32;102116.75;4992147;28;20046;-45
2023/10/10 01:29:26;;;;;;;24.67;12.73;;;;;;;20.15;75.66;102120.28;4993142;28;20600;-44
2023/10/10 01:31:52;;;;;;;27.30;13.35;;;;;;;20.12;75.88;102107.09;4992528;28;20031;-44
2023/10/10 01:34:31;;;;;;;30.20;14.38;;;;;;;20.06;76.60;102109.78;4992585;28;20500;-44
2023/10/10 01:37:41;;;;;;;28.85;14.77;;;;;;;19.98;77.11;102108.94;4992354;28;20125;-46
2023/10/10 01:40:16;;;;;;;31.08;14.32;;;;;;;20.09;76.63;102100.91;4989773;28;20659;-47
2023/10/10 01:42:51;;;;;;;31.23;14.25;;;;;;;20.08;76.35;102100.03;4992001;28;20042;-44
2023/10/10 01:45:19;;;;;;;27.40;14.43;;;;;;;20.09;76.48;102095.63;4992628;28;20036;-49
2023/10/10 01:47:56;;;;;;;27.08;13.57;;;;;;;20.08;76.53;102094.75;4991723;28;20038;-44
2023/10/10 01:50:26;;;;;;;34.28;14.20;;;;;;;20.03;76.80;102088.59;4991837;28;20081;-48
2023/10/10 01:52:55;;;;;;;29.33;14.13;;;;;;;20.10;76.27;102090.31;4991650;28;20038;-44
2023/10/10 01:55:24;;;;;;;31.05;14.75;;;;;;;20.07;76.26;102085.03;4992006;28;20543;-44
2023/10/10 01:57:49;;;;;;;32.03;14.18;;;;;;;20.01;76.72;102086.84;4991782;28;20038;-47
2023/10/10 02:00:51;;;;;;;29.90;13.57;;;;;;;20.05;76.54;102083.31;4992663;28;20093;-44
2023/10/10 02:03:06;;;;;;;28.65;13.85;;;;;;;20.04;76.26;102081.53;4988835;28;20050;-43
2023/10/10 02:07:57;;;;;;;30.27;13.73;;;;;;;19.98;76.50;102078.94;4992597;28;20030;-46
2023/10/10 02:10:26;;;;;;;33.65;14.98;;;;;;;19.89;76.94;102079.84;4992535;28;20045;-45
2023/10/10 02:12:52;;;;;;;34.97;14.93;;;;;;;19.90;76.93;102083.38;4991819;28;20065;-43
2023/10/10 02:15:26;;;;;;;36.78;15.63;;;;;;;19.96;76.79;102083.34;4992768;28;20130;-43
2023/10/10 02:17:54;;;;;;;35.63;15.70;;;;;;;19.92;76.77;102082.50;4992655;28;20117;-46
2023/10/10 02:22:53;;;;;;;34.17;14.90;;;;;;;19.94;76.69;102079.84;4991576;28;20087;-45
2023/10/10 02:27:54;;;;;;;29.50;13.88;;;;;;;19.97;76.50;102071.88;4991075;28;20489;-45
2023/10/10 02:30:34;;;;;;;31.52;14.93;;;;;;;19.94;76.54;102071.91;4991584;28;20035;-44
2023/10/10 02:33:14;;;;;;;29.75;13.80;;;;;;;19.93;76.33;102071.03;4991404;28;20038;-48
2023/10/10 02:36:14;;;;;;;29.88;13.55;;;;;;;19.90;76.17;102070.16;4989839;28;20034;-45
2023/10/10 02:38:37;;;;;;;32.58;15.02;;;;;;;19.85;76.63;102065.78;4990054;28;20038;-45
2023/10/10 02:43:55;;;;;;;30.38;14.63;;;;;;;19.81;76.64;102042.00;4991113;28;20416;-44
2023/10/10 02:46:37;;;;;;;;;;;;;;;19.77;76.88;102048.16;4991030;28;20109;-44
2023/10/10 02:49:12;;;;;;;30.98;14.35;;;;;;;19.79;76.63;102042.00;4992560;28;19913;-45
2023/10/10 02:51:41;;;;;;;31.98;14.75;;;;;;;19.79;76.60;102043.75;4991481;28;20412;-48
2023/10/10 02:59:59;;;;;;;33.10;15.23;;;;;;;19.75;76.91;102048.19;4990285;28;20085;-45
2023/10/10 03:02:29;;;;;;;34.92;15.30;;;;;;;19.79;76.53;102043.75;4989233;28;20513;-47
2023/10/10 03:05:06;;;;;;;35.13;15.60;;;;;;;19.74;76.79;102046.44;4990812;28;20054;-48
2023/10/10 03:07:32;;;;;;;36.70;16.30;;;;;;;19.67;77.42;102050.00;4990557;28;20388;-47
2023/10/10 03:12:41;;;;;;;37.80;16.90;;;;;;;19.68;77.00;102043.81;4989916;28;20089;-46
2023/10/10 03:18:04;;;;;;;37.33;16.75;;;;;;;19.53;77.44;102037.72;4990319;28;20045;-47
2023/10/10 03:25:45;;;;;;;42.28;17.30;;;;;;;19.59;77.52;102040.34;4989924;28;20081;-44
2023/10/10 03:30:55;;;;;;;39.50;16.27;;;;;;;19.54;77.54;102032.44;4989985;28;20045;-46
2023/10/10 03:33:37;;;;;;;42.80;16.35;;;;;;;19.53;77.50;102035.94;4990444;28;20528;-44
2023/10/10 05:25:07;;;;;;;44.90;21.40;;;;;;;18.89;77.22;101938.41;4992751;28;20089;-44
2023/10/10 05:27:33;;;;;;;40.35;19.80;;;;;;;18.99;76.84;101939.22;4993365;28;20564;-43
2023/10/10 05:29:59;;;;;;;43.78;20.63;;;;;;;18.99;76.53;101940.13;4993437;28;20042;-48
2023/10/10 05:32:30;;;;;;;45.75;21.00;;;;;;;19.00;76.35;101941.88;4992636;28;20034;-46
2023/10/10 05:34:58;;;;;;;50.42;22.17;;;;;;;18.89;76.86;101927.84;4992051;28;20039;-47
2023/10/10 05:37:24;;;;;;;46.28;21.80;;;;;;;18.92;76.74;101929.56;4992412;28;20038;-43
2023/10/10 05:39:56;;;;;;;42.38;21.92;;;;;;;18.89;76.99;101935.75;4992095;28;20034;-47
2023/10/10 05:42:25;;;;;;;44.17;21.95;;;;;;;18.91;76.90;101928.69;4991070;28;20472;-45
2023/10/10 05:44:51;;;;;;;45.92;23.00;;;;;;;18.93;76.79;101924.28;4992621;28;20030;-45
2023/10/10 05:47:17;;;;;;;42.70;21.13;;;;;;;18.91;76.86;101920.75;4992242;28;20053;-46
2023/10/10 05:49:43;;;;;;;47.33;22.23;;;;;;;18.92;76.69;101926.94;4992421;28;20062;-46
2023/10/10 05:52:08;;;;;;;45.05;21.70;;;;;;;18.94;76.46;101922.53;4993107;28;20081;-50
2023/10/10 05:54:34;;;;;;;49.35;23.08;;;;;;;18.82;77.00;101914.66;4992324;28;20034;-45
2023/10/10 05:56:59;;;;;;;51.42;22.80;;;;;;;18.94;76.65;101920.75;4992394;28;20050;-43
2023/10/10 05:59:24;;;;;;;50.08;23.17;;;;;;;18.89;76.86;101916.38;4992278;28;20030;-46
2023/10/10 06:01:50;;;;;;;50.35;23.75;;;;;;;18.80;77.05;101914.66;4991403;28;20044;-45
2023/10/10 06:04:15;;;;;;;50.72;24.17;;;;;;;18.86;76.85;101901.41;4992134;28;20096;-47
2023/10/10 06:06:43;;;;;;;49.08;22.77;;;;;;;18.90;76.87;101903.19;4991539;28;20046;-45
2023/10/10 06:09:18;;;;;;;44.53;22.55;;;;;;;18.90;76.91;101902.28;4992420;28;20041;-45
2023/10/10 06:11:44;;;;;;;46.17;22.30;;;;;;;19.00;76.63;101896.06;4991485;28;20378;-48
2023/10/10 06:14:09;;;;;;;49.53;22.83;;;;;;;18.98;76.91;101906.63;4991708;28;20045;-47
2023/10/10 06:16:36;;;;;;;47.00;22.33;;;;;;;18.99;76.97;101916.34;4991692;28;20093;-44
2023/10/10 06:19:01;;;;;;;47.63;23.25;;;;;;;19.02;76.91;101911.03;4992013;28;20069;-43
2023/10/10 06:21:29;;;;;;;46.33;23.10;;;;;;;18.91;76.98;101914.59;4991641;28;20058;-45
2023/10/10 06:23:55;;;;;;;48.95;23.08;;;;;;;19.05;76.82;101920.72;4991837;28;20043;-45
2023/10/10 06:26:21;;;;;;;46.95;22.77;;;;;;;19.15;76.79;101914.47;4992986;28;20526;-43
2023/10/10 06:28:51;;;;;;;47.80;23.13;;;;;;;19.15;76.80;101903.91;4993849;28;20034;-45
2023/10/10 06:31:19;;;;;;;44.60;22.13;;;;;;;19.21;76.46;101906.50;4992107;28;20030;-46
2023/10/10 06:33:51;;;;;;;43.15;22.65;;;;;;;19.20;76.50;101907.44;4990719;28;20042;-45
2023/10/10 06:38:46;;;;;;;45.47;22.77;;;;;;;19.25;76.04;101905.63;4990939;28;20189;-45
2023/10/10 06:41:17;;;;;;;44.00;22.70;;;;;;;19.32;76.25;101903.81;4991034;28;20077;-45
2023/10/10 06:43:46;;;;;;;43.47;22.80;;;;;;;19.44;76.09;101904.63;4990831;28;20030;-46
2023/10/10 06:46:17;;;;;;;43.58;22.20;;;;;;;19.42;75.64;101903.75;4991483;28;20044;-45
2023/10/10 06:48:43;;;;;;;43.65;21.73;;;;;;;19.58;75.98;101898.41;4991025;28;20121;-46
2023/10/10 06:51:09;;;;;;;42.70;21.38;;;;;;;19.67;75.48;101893.91;4991130;28;20113;-49
2023/10/10 06:53:35;;;;;;;44.42;22.15;;;;;;;19.75;74.96;101900.03;4990925;28;20041;-45
2023/10/10 06:56:17;;;;;;;40.45;21.42;;;;;;;19.85;74.60;101898.16;4989854;28;20034;-42
2023/10/10 06:58:46;;;;;;;42.80;22.02;;;;;;;19.83;74.21;101894.63;4990904;28;20038;-47
2023/10/10 07:01:12;;;;;;;43.47;21.95;;;;;;;19.81;74.16;101904.38;4991090;28;20451;-46
2023/10/10 07:03:42;;;;;;;40.40;22.40;;;;;;;19.91;73.87;101906.06;4990218;28;20509;-45
2023/10/10 07:06:08;;;;;;;43.38;23.20;;;;;;;19.80;73.35;101902.63;4990949;28;20543;-49
2023/10/10 07:08:35;;;;;;;44.88;23.65;;;;;;;19.72;73.84;101897.38;4990229;28;20050;-45
2023/10/10 07:11:04;;;;;;;41.53;23.60;;;;;;;19.83;73.13;101897.28;4990916;28;20057;-43
2023/10/10 07:13:30;;;;;;;40.92;22.92;;;;;;;20.01;72.82;101897.13;4990909;28;20050;-43
2023/10/10 07:15:59;;;;;;;37.95;22.17;;;;;;;20.09;72.75;101902.34;4991195;28;20038;-45
2023/10/10 07:18:25;;;;;;;37.97;22.63;;;;;;;19.96;72.05;101898.06;4989870;28;20038;-45
2023/10/10 07:21:17;;;;;;;36.92;22.67;;;;;;;20.08;72.10;101909.41;4990589;28;20035;-45
2023/10/10 07:24:02;;;;;;;39.03;22.75;;;;;;;19.99;72.21;101904.22;4990579;28;20120;-42
2023/10/10 07:26:31;;;;;;;38.88;22.45;;;;;;;20.16;71.46;101902.28;4991104;28;20046;-48
2023/10/10 07:29:22;;;;;;;39.20;22.15;;;;;;;20.30;71.24;101893.34;4990910;28;20038;-46
2023/10/10 07:31:42;;;;;;;36.20;21.40;;;;;;;20.39;71.04;101896.78;4990033;28;20041;-46
2023/10/10 07:34:15;;;;;;;37.15;22.55;;;;;;;20.34;70.61;101892.44;4990591;28;20034;-44
2023/10/10 07:36:43;;;;;;;38.70;22.85;;;;;;;20.34;70.86;101895.06;4991126;28;20417;-46
2023/10/10 07:41:54;;;;;;;40.85;22.08;;;;;;;20.31;70.99;101890.66;4990072;28;20057;-44
2023/10/10 07:44:23;;;;;;;39.55;22.20;;;;;;;20.53;70.78;101901.94;4990406;28;20045;-45
2023/10/10 07:49:33;;;;;;;37.10;22.52;;;;;;;20.42;71.31;101904.72;4990309;28;20041;-46
2023/10/10 07:52:02;;;;;;;37.38;21.20;;;;;;;20.81;70.47;101903.34;4989441;28;20038;-43
2023/10/10 07:54:38;;;;;;;36.90;22.75;;;;;;;20.35;70.67;101895.06;4990765;28;20034;-43
2023/10/10 07:57:12;;;;;;;37.85;23.33;;;;;;;20.55;71.34;101900.16;4990760;28;20488;-46
2023/10/10 07:59:37;;;;;;;37.07;22.97;;;;;;;20.84;70.56;101898.03;4990205;28;20031;-44
2023/10/10 08:02:24;;;;;;;39.58;22.73;;;;;;;20.87;69.66;101894.44;4989969;28;20286;-46
2023/10/10 08:04:50;;;;;;;37.67;22.63;;;;;;;21.11;69.42;101894.09;4989693;28;20038;-46
2023/10/10 08:07:19;;;;;;;39.70;22.80;;;;;;;21.11;68.83;101891.47;4990068;28;20089;-45
2023/10/10 08:09:46;;;;;;;37.08;22.77;;;;;;;20.72;69.47;101900.81;4985208;28;20073;-46
2023/10/10 08:12:15;;;;;;;35.78;22.20;;;;;;;21.12;69.50;101890.56;4989863;28;20041;-45
2023/10/10 08:14:42;;;;;;;38.03;22.25;;;;;;;21.29;68.99;101896.53;4989964;28;20030;-47
2023/10/10 08:17:18;;;;;;;35.78;22.23;;;;;;;20.86;69.60;101888.25;4989885;28;20089;-46
2023/10/10 08:19:51;;;;;;;35.80;23.10;;;;;;;21.36;69.23;101890.25;4989668;28;20086;-45
2023/10/10 08:22:19;;;;;;;35.10;21.88;;;;;;;21.68;68.05;101895.06;4990073;28;20058;-44
2023/10/10 08:24:44;;;;;;;34.80;22.27;;;;;;;21.54;67.77;101902.34;4989797;28;20520;-43
2023/10/10 08:27:11;;;;;;;37.20;23.48;;;;;;;21.18;69.75;101897.59;4990353;28;20034;-47
2023/10/10 08:29:38;;;;;;;35.47;22.23;;;;;;;21.65;68.75;101900.41;4990480;28;20149;-44
2023/10/10 08:32:05;;;;;;;35.45;21.20;;;;;;;21.68;68.58;101900.38;4988949;28;20042;-45
2023/10/10 08:34:31;;;;;;;33.25;22.05;;;;;;;21.71;67.68;101904.75;4991757;28;20031;-45
2023/10/10 08:37:03;;;;;;;34.28;22.77;;;;;;;21.55;68.04;101909.41;4993748;28;20734;-45
2023/10/10 08:39:35;;;;;;;37.90;22.80;;;;;;;21.67;67.92;101909.22;4993897;28;20030;-45
2023/10/10 08:42:05;;;;;;;36.28;21.33;;;;;;;21.82;67.66;101911.66;4993437;28;20069;-48
2023/10/10 08:44:39;;;;;;;33.00;19.75;;;;;;;21.90;67.53;101915.91;4993850;28;20081;-45
2023/10/10 08:47:10;;;;;;;32.53;21.02;;;;;;;22.01;67.46;101911.34;4992912;28;20030;-47
2023/10/10 08:49:35;;;;;;;32.03;20.20;;;;;;;22.31;67.01;101910.81;4993324;28;20118;-43
2023/10/10 08:52:03;;;;;;;32.15;19.75;;;;;;;22.36;65.58;101894.78;4993623;28;20121;-46
2023/10/10 08:54:29;;;;;;;33.45;20.27;;;;;;;22.21;66.08;101899.47;4993279;28;20045;-46
2023/10/10 08:57:09;;;;;;;32.65;20.88;;;;;;;22.39;65.33;101906.19;4993212;28;20790;-45
2023/10/10 08:59:35;;;;;;;36.50;22.52;;;;;;;22.17;65.85;101910.19;4993076;28;20139;-47
2023/10/10 09:02:06;;;;;;;36.15;21.25;;;;;;;22.41;65.47;101907.06;4993423;28;20495;-44
2023/10/10 09:04:32;;;;;;;32.33;20.58;;;;;;;22.45;65.73;101903.44;4992762;28;20053;-44
2023/10/10 09:07:00;;;;;;;35.80;21.20;;;;;;;22.54;65.22;101902.38;4993039;28;20046;-45
2023/10/10 09:12:03;;;;;;;38.25;21.45;;;;;;;22.22;66.88;101895.03;4992538;28;20093;-46
2023/10/10 09:14:39;;;;;;;36.15;20.65;;;;;;;22.55;66.68;101896.16;4992899;28;20046;-45
2023/10/10 09:17:06;;;;;;;31.55;19.88;;;;;;;22.42;66.21;101899.97;4991703;28;20126;-44
2023/10/10 09:19:34;;;;;;;32.83;21.83;;;;;;;22.04;66.89;101898.88;4992456;28;20501;-45
2023/10/10 09:22:02;;;;;;;31.42;20.67;;;;;;;22.26;67.64;101891.44;4992972;28;20039;-48
2023/10/10 09:24:28;;;;;;;30.83;19.23;;;;;;;22.90;65.50;101895.47;4992524;28;20476;-45
2023/10/10 09:26:59;;;;;;;30.05;19.48;;;;;;;23.01;63.89;101899.66;4992062;28;20117;-47
2023/10/10 09:29:32;;;;;;;33.17;20.00;;;;;;;23.00;64.03;101891.69;4992827;28;20489;-45
2023/10/10 09:31:59;;;;;;;35.47;20.45;;;;;;;22.94;64.19;101903.34;4992451;28;20058;-45
2023/10/10 09:34:28;;;;;;;30.95;20.65;;;;;;;22.34;66.07;101904.53;4992633;28;20041;-47
2023/10/10 09:36:57;;;;;;;33.38;19.52;;;;;;;22.89;65.15;101909.66;4992044;28;20038;-46
2023/10/10 09:39:35;;;;;;;33.10;19.75;;;;;;;23.21;63.38;101904.53;4992648;28;20477;-44
2023/10/10 09:42:06;;;;;;;30.70;18.88;;;;;;;23.08;63.15;101902.16;4992213;28;20066;-45
2023/10/10 09:47:52;;;;;;;31.23;18.83;;;;;;;23.54;60.44;101902.91;4992786;28;20150;-46
2023/10/10 09:52:58;;;;;;;31.75;18.67;;;;;;;23.00;63.00;101902.31;4990460;28;19996;-47
2023/10/10 10:09:17;;;;;;;29.75;17.60;;;;;;;23.38;62.96;101905.00;4991661;28;20130;-48
2023/10/10 10:12:08;;;;;;;28.67;17.58;;;;;;;23.61;62.17;101896.50;4973163;28;20115;-47
2023/10/10 10:14:48;;;;;;;31.50;18.77;;;;;;;23.38;62.40;101899.69;4991324;28;20037;-49
2023/10/10 10:17:47;;;;;;;33.78;19.58;;;;;;;23.25;62.38;101900.00;4991695;28;20038;-46
2023/10/10 10:20:21;;;;;;;27.23;17.77;;;;;;;23.57;62.74;101899.28;4991744;28;20038;-46
2023/10/10 10:23:00;;;;;;;31.38;18.65;;;;;;;23.35;63.06;101905.09;4991333;28;20034;-44
2023/10/10 10:25:31;;;;;;;29.73;18.25;;;;;;;23.31;63.30;101906.06;4991603;28;20454;-45
2023/10/10 10:28:00;;;;;;;29.05;18.13;;;;;;;23.30;63.53;101906.97;4991105;28;20046;-45
2023/10/10 10:32:56;;;;;;;28.77;18.50;;;;;;;23.39;63.61;101909.44;4991100;28;20046;-46
2023/10/10 10:35:46;;;;;;;30.02;18.48;;;;;;;23.55;62.67;101896.66;4991723;28;20030;-47
2023/10/10 10:38:11;;;;;;;28.63;16.52;;;;;;;23.71;62.66;101899.84;4983772;28;20042;-46
2023/10/10 10:43:14;;;;;;;27.95;17.52;;;;;;;24.06;61.26;101902.47;4991374;28;20050;-43
2023/10/10 10:46:12;;;;;;;26.15;17.40;;;;;;;23.93;61.89;101905.47;4990932;28;20057;-47
2023/10/10 10:48:35;;;;;;;26.98;18.48;;;;;;;24.01;61.31;101901.72;4990983;28;20030;-44
2023/10/10 10:51:24;;;;;;;27.88;17.38;;;;;;;24.21;60.62;101898.56;4991651;28;20045;-44
2023/10/10 10:53:50;;;;;;;29.70;18.17;;;;;;;24.03;60.50;101904.34;4990629;28;20060;-46
2023/10/10 11:01:21;;;;;;;27.35;17.83;;;;;;;24.67;58.52;101883.03;4991180;28;20034;-45
2023/10/10 11:03:51;;;;;;;26.73;17.38;;;;;;;24.46;60.01;101888.97;4990561;28;20456;-46
2023/10/10 11:06:20;;;;;;;22.70;15.55;;;;;;;24.81;58.92;101892.44;4991267;28;20042;-45
2023/10/10 11:11:36;;;;;;;26.80;16.98;;;;;;;25.03;57.93;101878.41;4990125;28;20031;-45
2023/10/10 11:14:10;;;;;;;27.40;18.00;;;;;;;24.86;57.13;101871.81;4990737;28;20097;-46
2023/10/10 11:16:45;;;;;;;26.83;17.65;;;;;;;24.50;59.39;101873.78;4990808;28;20034;-45
2023/10/10 11:19:25;;;;;;;24.08;16.52;;;;;;;25.10;57.36;101857.75;4991114;28;20042;-47
2023/10/10 11:22:00;;;;;;;27.25;17.33;;;;;;;25.18;57.13;101854.84;4990020;28;20027;-45
2023/10/10 11:24:29;;;;;;;26.00;16.95;;;;;;;25.22;57.21;101849.38;4989528;28;20042;-45
2023/10/10 11:29:45;;;;;;;30.83;18.80;;;;;;;24.77;58.54;101848.06;4990352;28;20046;-45
2023/10/10 11:32:25;;;;;;;28.20;17.33;;;;;;;24.98;58.29;101848.34;4973499;28;20528;-51
2023/10/10 11:34:55;;;;;;;26.52;16.23;;;;;;;25.05;58.22;101841.03;4990216;28;20084;-46
2023/10/10 11:37:32;;;;;;;28.38;17.20;;;;;;;24.80;58.87;101840.88;4990453;28;20702;-45
2023/10/10 11:43:04;;;;;;;28.02;17.05;;;;;;;24.81;58.69;101829.28;4989825;28;20035;-46
2023/10/10 11:45:31;;;;;;;29.10;17.80;;;;;;;25.11;58.04;101822.16;4990325;28;20601;-47
2023/10/10 11:48:04;;;;;;;27.98;16.73;;;;;;;25.18;57.96;101823.72;4989731;28;20117;-44
2023/10/10 11:50:44;;;;;;;26.90;17.52;;;;;;;24.81;58.49;101839.97;4990224;28;20069;-44
2023/10/10 11:53:13;;;;;;;28.85;18.00;;;;;;;24.66;59.65;101827.94;4989661;28;20038;-46
2023/10/10 11:55:40;;;;;;;30.73;18.25;;;;;;;24.63;58.50;101828.06;4989372;28;20042;-46
2023/10/10 11:58:16;;;;;;;32.28;16.27;;;;;;;25.06;57.62;101824.09;4990218;28;20042;-45
2023/10/10 12:00:44;;;;;;;30.02;16.13;;;;;;;25.13;58.60;101822.13;4989421;28;20093;-49
2023/10/10 12:03:13;;;;;;;25.48;15.93;;;;;;;25.23;57.17;101821.75;4989729;28;20049;-44
2023/10/10 12:05:48;;;;;;;27.92;15.75;;;;;;;25.35;57.52;101815.16;4989333;28;20034;-51
2023/10/10 12:08:23;;;;;;;25.13;14.75;;;;;;;25.46;57.00;101816.53;4992011;28;20116;-43
2023/10/10 12:10:52;;;;;;;31.10;15.60;;;;;;;25.27;58.78;101819.84;4995918;28;20034;-44
2023/10/10 12:15:51;;;;;;;29.17;15.15;;;;;;;25.21;58.36;101804.91;4995964;28;20412;-47
2023/10/10 12:18:17;;;;;;;27.98;14.73;;;;;;;25.64;56.40;101804.38;4996467;28;20038;-44
2023/10/10 12:20:44;;;;;;;22.73;12.55;;;;;;;25.95;55.88;101805.97;4995910;28;20085;-46
2023/10/10 12:23:12;;;;;;;25.48;15.02;;;;;;;25.15;57.28;101809.56;4996787;28;20038;-46
2023/10/10 12:25:43;;;;;;;22.88;13.68;;;;;;;25.48;55.65;101805.81;4995894;28;20586;-44
2023/10/10 12:28:18;;;;;;;22.67;12.73;;;;;;;25.66;54.71;101794.53;4996333;28;20137;-47
2023/10/10 12:30:43;;;;;;;22.90;13.02;;;;;;;25.66;55.69;101791.00;4995756;28;20038;-44
2023/10/10 12:33:12;;;;;;;21.52;12.68;;;;;;;25.83;54.49;101796.59;4996391;28;20038;-45
2023/10/10 12:35:39;;;;;;;19.60;11.35;;;;;;;26.10;53.74;101792.97;4995927;28;20120;-45
2023/10/10 12:38:04;;;;;;;23.58;11.63;;;;;;;25.81;54.46;101785.97;4996328;28;20034;-46
2023/10/10 12:40:33;;;;;;;20.23;11.60;;;;;;;26.04;54.18;101789.63;4996120;28;20045;-45
2023/10/10 12:43:01;;;;;;;25.75;12.35;;;;;;;26.17;54.28;101782.88;4995501;28;20509;-44
2023/10/10 12:45:32;;;;;;;19.27;11.05;;;;;;;26.36;54.34;101783.97;4995959;28;20042;-45
2023/10/10 12:47:59;;;;;;;20.48;11.80;;;;;;;26.27;53.01;101784.34;4994553;28;20042;-47
2023/10/10 12:50:26;;;;;;;19.63;11.70;;;;;;;26.21;53.51;101784.53;4996193;28;20026;-51
2023/10/10 12:53:07;;;;;;;17.92;10.52;;;;;;;26.62;51.98;101783.88;4995517;28;20042;-45
2023/10/10 12:55:37;;;;;;;23.40;12.00;;;;;;;26.48;52.33;101783.50;4995804;28;20034;-46
2023/10/10 12:58:14;;;;;;;18.15;10.13;;;;;;;26.13;53.41;101787.47;4996238;28;20049;-46
2023/10/10 13:00:42;;;;;;;22.35;10.35;;;;;;;26.56;53.31;101781.44;4995809;28;20038;-45
2023/10/10 13:03:07;;;;;;;22.90;9.88;;;;;;;26.90;52.43;101783.66;4995818;28;20038;-45
2023/10/10 13:05:33;;;;;;;18.90;11.05;;;;;;;27.12;50.63;101786.38;4995741;28;20035;-49
2023/10/10 13:07:59;;;;;;;20.25;9.77;;;;;;;27.11;50.01;101781.94;4995852;28;20092;-46
2023/10/10 13:10:30;;;;;;;17.60;9.07;;;;;;;27.52;49.09;101790.94;4995802;28;20034;-45
2023/10/10 13:12:56;;;;;;;18.58;9.07;;;;;;;27.28;47.65;101791.94;4995277;28;20038;-46
2023/10/10 13:15:29;;;;;;;19.85;8.40;;;;;;;27.36;47.73;101780.00;4995858;28;20514;-43
2023/10/10 13:20:39;;;;;;;13.13;7.65;;;;;;;27.11;48.10;101781.94;4992056;28;19964;-46
2023/10/10 13:23:06;;;;;;;15.20;7.20;;;;;;;27.03;48.74;101776.88;4992499;28;20046;-46
2023/10/10 13:25:37;;;;;;;17.70;6.60;;;;;;;27.16;45.93;101774.59;4992320;28;20568;-47
2023/10/10 13:28:09;;;;;;;10.02;6.20;;;;;;;27.41;44.75;101772.63;4992682;28;20061;-46
2023/10/10 13:30:46;;;;;;;11.30;5.97;;;;;;;27.52;44.37;101769.50;4992262;28;20050;-46
2023/10/10 13:33:20;;;;;;;11.93;5.75;;;;;;;27.34;44.26;101776.50;4992493;28;20034;-45
2023/10/10 13:35:45;;;;;;;;;;;;;;;27.57;43.81;101780.91;4992674;28;20104;-44
2023/10/10 13:38:11;;;;;;;14.23;6.40;;;;;;;26.92;44.64;101773.78;4992577;28;19913;-45
2023/10/10 13:40:48;;;;;;;14.93;6.32;;;;;;;27.17;44.72;101778.13;4992170;28;20072;-44
2023/10/10 13:43:17;;;;;;;14.50;6.63;;;;;;;26.71;46.15;101773.75;4992489;28;20551;-45
2023/10/10 13:45:51;;;;;;;10.68;6.10;;;;;;;26.79;45.23;101771.63;4991910;28;20061;-46
2023/10/10 13:48:22;;;;;;;16.10;7.05;;;;;;;26.43;46.04;101772.13;4992588;28;20039;-45
2023/10/10 13:50:50;;;;;;;11.93;6.43;;;;;;;26.38;47.93;101773.25;4991588;28;20082;-45
2023/10/10 13:53:17;;;;;;;14.18;6.20;;;;;;;26.20;46.80;101770.28;4992377;28;20089;-45
2023/10/10 13:55:43;;;;;;;11.45;6.10;;;;;;;26.15;47.03;101766.06;4992117;28;20497;-45
2023/10/10 13:58:11;;;;;;;13.52;6.35;;;;;;;26.23;46.75;101761.28;4992362;28;20038;-44
2023/10/10 14:00:52;;;;;;;13.38;6.00;;;;;;;26.48;46.67;101755.91;4991958;28;20074;-49
2023/10/10 14:03:28;;;;;;;12.93;6.18;;;;;;;26.59;46.64;101759.91;4993508;28;20034;-45
2023/10/10 14:06:00;;;;;;;11.50;6.25;;;;;;;26.76;46.01;101758.38;4992253;28;20513;-45
2023/10/10 14:08:26;;;;;;;12.20;6.63;;;;;;;26.43;46.94;101748.06;4992423;28;20045;-45
2023/10/10 14:10:53;;;;;;;10.68;5.88;;;;;;;26.56;46.67;101743.09;4991460;28;20725;-44
2023/10/10 14:13:19;;;;;;;10.85;6.18;;;;;;;26.40;46.19;101744.66;4992266;28;20564;-45
2023/10/10 14:15:55;;;;;;;13.70;6.80;;;;;;;26.32;45.43;101739.59;4991593;28;20121;-49
2023/10/10 14:18:47;;;;;;;10.77;6.50;;;;;;;26.11;47.00;101745.69;4991960;28;20146;-44
2023/10/10 14:21:13;;;;;;;11.27;5.80;;;;;;;26.35;46.74;101735.94;4992006;28;20046;-45
2023/10/10 14:23:40;;;;;;;13.65;6.63;;;;;;;26.14;48.02;101741.13;4990971;28;20038;-46
2023/10/10 14:26:13;;;;;;;10.82;5.82;;;;;;;26.02;47.67;101730.91;4990337;28;20497;-44
2023/10/10 14:28:50;;;;;;;10.45;5.25;;;;;;;26.04;47.12;101733.53;4991491;28;20117;-45
2023/10/10 14:31:17;;;;;;;10.30;5.18;;;;;;;26.02;44.64;101724.69;4990981;28;20042;-45
2023/10/10 14:33:43;;;;;;;12.95;5.15;;;;;;;26.21;43.13;101721.25;4991171;28;20084;-42
2023/10/10 14:36:12;;;;;;;9.77;5.10;;;;;;;26.22;42.38;101714.13;4991795;28;20038;-46
2023/10/10 14:38:44;;;;;;;8.57;4.95;;;;;;;26.06;42.07;101711.13;4990729;28;20031;-46
2023/10/10 14:41:21;;;;;;;11.60;5.15;;;;;;;25.87;42.06;101702.06;4991035;28;20110;-45
2023/10/10 14:43:52;;;;;;;8.95;4.85;;;;;;;26.20;42.04;101707.94;4990958;28;20147;-46